Descalvado, Brazil
Current Conditions -  °F | °C
As of 11:00 PM on Tuesday 25 Nov 2014 (Local Time) from SBYS Reporting Station
Broken Clouds Broken Clouds  
Wind Chill: 72°   Ceiling: 3500
Heat Index: 72°   Visibility: 6mi
Dew Point: 70°   Wind: 7mph
Humidity: 94%   Direction: 220°SW
Pressure: 29.88"   Gusts: NA
Location:  21.9°S, 47.62°W
Report Text: SBYS 260100Z 22006KT 9999 SCT015 BKN035 BKN100 22/21 Q1012
Loading
Personal Weather Stations






























Interactive Weather Map New forecast layout! Learn more

10-Day Weather Forecast

Advertisements
Track Severe Weather on mobile